This is the latest recevied weather packets stored in our database for station/object E70ARA-3. If no packets are shown the sender has not sent any weather packets the latest 10 day(s).
| Time | Temp. | Humidity | Pressure | Rain* | Wind** | Luminosity | Snow |
|---|---|---|---|---|---|---|---|
| 1777462065 | 22.22° C | 35% | 1028.8 hPa | - | - | - | - |
| 1777461165 | 21.67° C | 37% | 1029 hPa | - | - | - | - |
| 1777460265 | 22.22° C | 34% | 1029 hPa | - | - | - | - |
| 1777459365 | 23.89° C | 32% | 1028.9 hPa | - | - | - | - |
| 1777458465 | 26.11° C | 29% | 1028.9 hPa | - | - | - | - |
| 1777457565 | 26.11° C | 30% | 1028.8 hPa | - | - | - | - |
| 1777456664 | 26.11° C | 34% | 1029.1 hPa | - | - | - | - |
| 1777455764 | 26.67° C | 34% | 1029 hPa | - | - | - | - |
| 1777454864 | 25° C | 35% | 1029.2 hPa | - | - | - | - |
| 1777453964 | 23.89° C | 36% | 1029.3 hPa | - | - | - | - |
| 1777453064 | 23.89° C | 37% | 1029.5 hPa | - | - | - | - |
| 1777452163 | 23.33° C | 35% | 1029.6 hPa | - | - | - | - |
| 1777451263 | 22.22° C | 37% | 1029.7 hPa | - | - | - | - |
| 1777450363 | 20° C | 41% | 1029.8 hPa | - | - | - | - |
| 1777449462 | 21.11° C | 40% | 1029.9 hPa | - | - | - | - |
| 1777448567 | 20° C | 43% | 1030.1 hPa | - | - | - | - |
| 1777447667 | 17.78° C | 48% | 1030.3 hPa | - | - | - | - |
| 1777446767 | 17.78° C | 50% | 1030.4 hPa | - | - | - | - |
| 1777445866 | 17.22° C | 51% | 1030.5 hPa | - | - | - | - |
| 1777444966 | 15.56° C | 58% | 1030.6 hPa | - | - | - | - |
| 1777444066 | 13.89° C | 61% | 1030.7 hPa | - | - | - | - |
| 1777443166 | 12.78° C | 65% | 1030.9 hPa | - | - | - | - |
| 1777442266 | 12.22° C | 66% | 1030.9 hPa | - | - | - | - |
| 1777441365 | 12.22° C | 67% | 1030.8 hPa | - | - | - | - |
| 1777440465 | 10.56° C | 72% | 1030.8 hPa | - | - | - | - |
* Rain since midnight (hover to see other rain measurements)
** Current wind speed in m/s (hover to see current wind gust speed)